Time;durP1;ratioP1;P1;durP2;ratioP2;P2;SDS_P1;SDS_P2;PMS_P1;PMS_P2;Temp;Humidity;BMP_temperature;BMP_pressure;BME280_temperature;BME280_humidity;BME280_pressure;Samples;Min_cycle;Max_cycle;Signal;HPM_P1;HPM_P2
2022/05/30 00:01:17;;;;;;;4.60;2.25;;;12.00;99.90;;;;;;5019513;28;20048;-71
2022/05/30 00:03:45;;;;;;;2.85;1.30;;;12.00;99.90;;;;;;5015415;28;20140;-71
2022/05/30 00:06:15;;;;;;;2.45;1.40;;;12.00;99.90;;;;;;5019505;28;20072;-71
2022/05/30 00:08:43;;;;;;;2.00;1.27;;;12.00;99.90;;;;;;5019347;28;20045;-71
2022/05/30 00:11:14;;;;;;;2.70;1.45;;;12.00;99.90;;;;;;5019363;28;20056;-71
2022/05/30 00:13:41;;;;;;;3.58;1.60;;;12.00;99.90;;;;;;5021910;28;20065;-71
2022/05/30 00:16:11;;;;;;;2.45;1.50;;;12.00;99.90;;;;;;5018024;28;20037;-71
2022/05/30 00:18:38;;;;;;;3.20;1.13;;;12.00;99.90;;;;;;5018322;28;20504;-71
2022/05/30 00:21:05;;;;;;;5.95;1.70;;;12.10;99.90;;;;;;5019709;28;20056;-71
2022/05/30 00:23:32;;;;;;;2.40;1.42;;;12.10;99.90;;;;;;5020054;28;20037;-71
2022/05/30 00:26:00;;;;;;;3.38;1.48;;;12.10;99.90;;;;;;5019093;28;20052;-71
2022/05/30 00:28:27;;;;;;;2.65;1.40;;;12.10;99.90;;;;;;5020244;28;20048;-71
2022/05/30 00:30:54;;;;;;;3.38;1.80;;;12.10;99.90;;;;;;5018412;28;20087;-71
2022/05/30 00:33:21;;;;;;;5.65;1.60;;;12.10;99.90;;;;;;5018128;28;20049;-71
2022/05/30 00:35:48;;;;;;;2.28;1.40;;;12.10;99.90;;;;;;5005839;28;20037;-71
2022/05/30 00:38:15;;;;;;;2.92;1.63;;;12.00;99.90;;;;;;5019914;28;20052;-71
2022/05/30 00:40:43;;;;;;;2.70;1.17;;;12.10;99.90;;;;;;5018522;28;20042;-71
2022/05/30 00:43:35;;;;;;;2.85;1.10;;;12.10;99.90;;;;;;5033186;28;20176;-71
2022/05/30 00:46:10;;;;;;;4.95;1.45;;;12.20;99.90;;;;;;5021223;28;20602;-71
2022/05/30 00:48:50;;;;;;;3.63;1.30;;;12.20;99.90;;;;;;5050844;28;20037;-70
2022/05/30 00:51:22;;;;;;;6.22;1.80;;;12.10;99.90;;;;;;5021022;28;20427;-71
2022/05/30 00:53:53;;;;;;;3.95;1.30;;;12.10;99.90;;;;;;5016849;28;20037;-71
2022/05/30 00:56:23;;;;;;;3.75;1.80;;;12.10;99.90;;;;;;5019563;28;20060;-71
2022/05/30 00:58:51;;;;;;;4.28;1.45;;;12.20;99.90;;;;;;5019299;28;20069;-71
2022/05/30 01:01:20;;;;;;;4.90;1.65;;;12.20;99.90;;;;;;5016033;28;20080;-70
2022/05/30 01:06:46;;;;;;;4.28;1.95;;;12.20;99.90;;;;;;5033532;28;20416;-71
2022/05/30 01:09:21;;;;;;;5.22;1.60;;;12.20;99.90;;;;;;5005517;28;20057;-70
2022/05/30 01:11:55;;;;;;;6.35;2.25;;;12.30;99.90;;;;;;5048672;28;20053;-71
2022/05/30 01:14:26;;;;;;;2.58;1.70;;;12.30;99.90;;;;;;5016800;28;20128;-70
2022/05/30 01:16:54;;;;;;;2.28;1.52;;;12.30;99.90;;;;;;5016915;28;20119;-71
2022/05/30 01:19:53;;;;;;;3.28;1.50;;;12.30;99.90;;;;;;5017897;28;20061;-71
2022/05/30 01:22:48;;;;;;;2.45;1.70;;;12.40;99.90;;;;;;5018512;28;20045;-71
2022/05/30 01:25:59;;;;;;;3.38;1.95;;;12.40;99.90;;;;;;5010587;28;20045;-71
2022/05/30 01:28:40;;;;;;;2.38;1.73;;;12.40;99.90;;;;;;5018528;28;20052;-71
2022/05/30 01:31:08;;;;;;;2.40;1.50;;;12.40;99.90;;;;;;5015930;28;20136;-71
2022/05/30 01:33:36;;;;;;;3.38;1.55;;;12.40;99.90;;;;;;5018239;28;20054;-71
2022/05/30 01:36:05;;;;;;;3.03;1.42;;;12.40;99.90;;;;;;5021531;28;20109;-71
2022/05/30 01:38:33;;;;;;;2.72;1.55;;;12.40;99.90;;;;;;5015559;28;20052;-71
2022/05/30 01:41:01;;;;;;;4.15;1.58;;;12.40;99.90;;;;;;5019980;28;20037;-70
2022/05/30 01:43:30;;;;;;;2.47;1.33;;;12.40;99.90;;;;;;5002041;28;20045;-71
2022/05/30 01:46:04;;;;;;;3.30;1.23;;;12.40;99.90;;;;;;5019724;28;20049;-70
2022/05/30 01:48:33;;;;;;;2.35;1.38;;;12.40;99.90;;;;;;5016398;28;20500;-71
2022/05/30 01:51:01;;;;;;;4.55;1.67;;;12.30;99.90;;;;;;5001428;28;20684;-71
2022/05/30 01:53:29;;;;;;;2.70;1.45;;;12.40;99.90;;;;;;5013012;28;20160;-71
2022/05/30 01:56:31;;;;;;;3.03;1.10;;;12.40;99.90;;;;;;5017613;28;20050;-71
2022/05/30 01:59:00;;;;;;;4.03;1.70;;;12.40;99.90;;;;;;5017531;28;20933;-70
2022/05/30 02:02:05;;;;;;;2.78;1.50;;;12.30;99.90;;;;;;5016275;28;20087;-71
2022/05/30 02:04:33;;;;;;;5.85;2.08;;;12.30;99.90;;;;;;4996932;28;20165;-71
2022/05/30 02:07:00;;;;;;;3.95;1.50;;;12.30;99.90;;;;;;5011455;28;20052;-71
2022/05/30 02:09:27;;;;;;;2.88;2.00;;;12.30;99.90;;;;;;5016329;28;20134;-70
2022/05/30 02:11:55;;;;;;;4.03;1.75;;;12.30;99.90;;;;;;5017598;28;20647;-70
2022/05/30 02:14:37;;;;;;;4.45;2.15;;;12.30;99.90;;;;;;5015146;28;20816;-71
2022/05/30 02:17:06;;;;;;;3.22;1.80;;;12.30;99.90;;;;;;5029311;28;20049;-71
2022/05/30 02:19:37;;;;;;;2.67;1.60;;;12.40;99.90;;;;;;5016749;28;20044;-71
2022/05/30 02:22:10;;;;;;;4.30;1.55;;;12.40;99.90;;;;;;5001639;28;20068;-72
2022/05/30 02:24:38;;;;;;;2.42;1.50;;;12.40;99.90;;;;;;5032069;28;20042;-70
2022/05/30 02:27:07;;;;;;;3.22;1.65;;;12.40;99.90;;;;;;5013524;28;20042;-71
2022/05/30 02:29:35;;;;;;;3.80;1.90;;;12.40;99.90;;;;;;5033934;28;20065;-71
2022/05/30 02:32:05;;;;;;;4.20;2.05;;;12.40;99.90;;;;;;5003290;28;22438;-71
2022/05/30 02:37:19;;;;;;;4.30;1.80;;;12.40;99.90;;;;;;5034905;28;20056;-71
2022/05/30 02:39:47;;;;;;;2.72;1.60;;;12.40;99.90;;;;;;5031126;28;20136;-71
2022/05/30 02:42:33;;;;;;;3.13;1.35;;;12.40;99.90;;;;;;5019537;28;20059;-70
2022/05/30 02:45:02;;;;;;;2.63;1.80;;;12.40;99.90;;;;;;5015622;28;20044;-71
2022/05/30 02:47:29;;;;;;;2.38;1.73;;;12.40;99.90;;;;;;5015199;28;20144;-70
2022/05/30 02:50:01;;;;;;;2.15;1.55;;;12.40;99.90;;;;;;4995217;28;20049;-71
2022/05/30 02:52:30;;;;;;;4.03;1.58;;;12.40;99.90;;;;;;5015778;28;20547;-71
2022/05/30 02:54:57;;;;;;;2.90;1.20;;;12.40;99.90;;;;;;5033950;28;20523;-71
2022/05/30 02:57:32;;;;;;;5.75;2.00;;;12.40;99.90;;;;;;5034071;28;20149;-71
2022/05/30 03:00:01;;;;;;;4.88;1.63;;;12.50;99.90;;;;;;5018620;28;20045;-71
2022/05/30 03:02:30;;;;;;;2.03;1.15;;;12.40;99.90;;;;;;5046458;28;20050;-71
2022/05/30 03:04:58;;;;;;;5.25;1.77;;;12.40;99.90;;;;;;5020775;28;20103;-71
2022/05/30 03:07:25;;;;;;;3.08;1.40;;;12.40;99.90;;;;;;5020397;28;20051;-71
2022/05/30 03:09:52;;;;;;;3.85;1.20;;;12.40;99.90;;;;;;5021151;28;20049;-71
2022/05/30 03:12:33;;;;;;;2.63;1.38;;;12.40;99.90;;;;;;5037366;28;20049;-71
2022/05/30 03:15:00;;;;;;;3.38;1.40;;;12.40;99.90;;;;;;5017093;28;20033;-70
2022/05/30 03:17:27;;;;;;;1.92;1.40;;;12.40;99.90;;;;;;5018834;28;20167;-71
2022/05/30 03:19:54;;;;;;;3.40;1.45;;;12.50;99.90;;;;;;5020562;28;20040;-71
2022/05/30 03:22:22;;;;;;;3.72;1.60;;;12.50;99.90;;;;;;5019171;28;20052;-71
2022/05/30 03:25:16;;;;;;;2.35;1.25;;;12.50;99.90;;;;;;5018258;28;20089;-71
2022/05/30 03:27:44;;;;;;;1.73;1.10;;;12.50;99.90;;;;;;5022284;28;20041;-71
2022/05/30 03:30:13;;;;;;;3.17;1.55;;;12.50;99.90;;;;;;5021266;28;20060;-71
2022/05/30 03:32:43;;;;;;;2.17;1.38;;;12.50;99.90;;;;;;5021506;28;20052;-72
2022/05/30 03:35:12;;;;;;;2.67;1.27;;;12.50;99.90;;;;;;5001187;28;20551;-71
2022/05/30 03:37:46;;;;;;;4.90;1.23;;;12.50;99.90;;;;;;5013806;28;20045;-72
2022/05/30 03:40:39;;;;;;;4.57;1.63;;;12.50;99.90;;;;;;5006500;28;20049;-71
2022/05/30 03:43:32;;;;;;;3.55;1.65;;;12.50;99.90;;;;;;5023627;28;20054;-71
2022/05/30 03:46:00;;;;;;;3.15;1.27;;;12.60;99.90;;;;;;5050277;28;20171;-71
2022/05/30 03:48:27;;;;;;;4.18;1.48;;;12.50;99.90;;;;;;5023055;28;20041;-71
2022/05/30 03:50:55;;;;;;;2.78;1.33;;;12.60;99.90;;;;;;5020359;28;20053;-71
2022/05/30 03:53:23;;;;;;;2.92;1.30;;;12.60;99.90;;;;;;5021361;28;20068;-71
2022/05/30 03:55:50;;;;;;;3.22;1.50;;;12.60;99.90;;;;;;5002942;28;20432;-71
2022/05/30 03:58:17;;;;;;;5.45;1.98;;;12.60;99.90;;;;;;5017544;28;20041;-71
2022/05/30 04:00:45;;;;;;;1.60;1.10;;;12.60;99.90;;;;;;5019389;28;20045;-71
2022/05/30 04:03:15;;;;;;;3.80;1.60;;;12.60;99.90;;;;;;5005451;28;20061;-70
2022/05/30 04:05:44;;;;;;;2.55;1.45;;;12.70;99.90;;;;;;5014351;28;20531;-71
2022/05/30 04:08:11;;;;;;;2.35;1.17;;;12.70;99.90;;;;;;5016212;28;20037;-70
2022/05/30 04:10:59;;;;;;;3.28;1.60;;;12.70;99.90;;;;;;5020150;28;20049;-71
2022/05/30 04:13:32;;;;;;;4.90;1.65;;;12.80;99.90;;;;;;5020182;28;20061;-71
2022/05/30 04:16:25;;;;;;;4.40;1.60;;;12.70;99.90;;;;;;5017682;28;20060;-71
2022/05/30 04:18:54;;;;;;;4.03;1.40;;;12.80;99.90;;;;;;5021441;28;20420;-71
2022/05/30 04:21:22;;;;;;;3.95;1.55;;;12.80;99.90;;;;;;5049218;28;20034;-71
2022/05/30 04:23:50;;;;;;;2.38;1.42;;;12.80;99.90;;;;;;5021993;28;20096;-71
2022/05/30 04:26:21;;;;;;;2.05;1.60;;;12.80;99.90;;;;;;5017950;28;20045;-70
2022/05/30 04:28:51;;;;;;;4.22;1.67;;;12.90;99.90;;;;;;5022119;28;20046;-70
2022/05/30 04:31:39;;;;;;;2.90;1.48;;;12.90;99.90;;;;;;5019295;28;20567;-70
2022/05/30 04:34:07;;;;;;;4.15;1.30;;;13.00;99.90;;;;;;5036296;28;20041;-70
2022/05/30 04:36:34;;;;;;;3.30;1.35;;;13.00;99.90;;;;;;5013959;28;20100;-70
2022/05/30 04:39:02;;;;;;;3.88;1.23;;;13.00;99.90;;;;;;5017859;28;20050;-70
2022/05/30 04:41:35;;;;;;;2.67;1.55;;;13.00;99.90;;;;;;5018986;28;20181;-70
2022/05/30 04:44:21;;;;;;;2.17;1.23;;;13.10;99.90;;;;;;5017978;28;20064;-70
2022/05/30 04:47:05;;;;;;;4.28;2.00;;;13.10;99.90;;;;;;5018960;28;20052;-71
2022/05/30 04:49:34;;;;;;;5.15;1.13;;;13.10;99.90;;;;;;5022962;28;20566;-71
2022/05/30 04:52:01;;;;;;;5.85;2.40;;;13.20;99.90;;;;;;5018712;28;20127;-71
2022/05/30 04:54:28;;;;;;;30.75;14.10;;;13.20;99.90;;;;;;5016695;28;20668;-71
2022/05/30 04:57:25;;;;;;;82.97;36.78;;;13.20;99.90;;;;;;5019383;28;20103;-71
2022/05/30 05:00:14;;;;;;;47.85;23.05;;;13.30;99.90;;;;;;5034071;28;20041;-71
2022/05/30 05:02:44;;;;;;;74.72;22.65;;;13.30;99.90;;;;;;4984562;28;20095;-71
2022/05/30 05:05:13;;;;;;;13.35;7.03;;;13.30;99.90;;;;;;4978987;28;20064;-71
2022/05/30 05:08:19;;;;;;;12.80;6.20;;;13.30;99.90;;;;;;4981191;28;21505;-71
2022/05/30 05:11:29;;;;;;;;;;;13.30;99.90;;;;;;4963927;28;20050;-71
2022/05/30 05:14:17;;;;;;;14.82;6.47;;;13.40;99.90;;;;;;4949702;28;19937;-71
2022/05/30 05:17:07;;;;;;;7.22;3.33;;;13.50;99.90;;;;;;4976425;28;20060;-71
2022/05/30 05:19:41;;;;;;;5.03;2.60;;;13.50;99.90;;;;;;4985897;28;20095;-71
2022/05/30 05:22:13;;;;;;;3.60;1.50;;;13.50;99.90;;;;;;4995625;28;20282;-71
2022/05/30 05:24:41;;;;;;;2.50;1.02;;;13.60;99.90;;;;;;4983170;28;20091;-70
2022/05/30 05:27:09;;;;;;;2.78;1.40;;;13.70;99.90;;;;;;4981246;28;20124;-71
2022/05/30 05:29:37;;;;;;;3.67;1.63;;;13.80;99.90;;;;;;4980850;28;20245;-70
2022/05/30 05:32:07;;;;;;;4.65;1.30;;;14.00;99.90;;;;;;4997953;28;21862;-71
2022/05/30 05:34:34;;;;;;;4.22;1.13;;;14.00;99.90;;;;;;4963034;28;20057;-71
2022/05/30 05:37:01;;;;;;;5.20;1.13;;;14.00;99.90;;;;;;4998538;28;20092;-71
2022/05/30 05:39:34;;;;;;;3.13;0.85;;;14.00;99.50;;;;;;4981332;28;20045;-71
2022/05/30 05:42:08;;;;;;;4.53;1.35;;;14.10;99.50;;;;;;4955943;28;20053;-71
2022/05/30 05:44:36;;;;;;;2.10;1.00;;;14.40;97.10;;;;;;4989431;28;21054;-71
2022/05/30 05:47:03;;;;;;;2.38;1.05;;;14.40;96.40;;;;;;4975097;28;22482;-72
2022/05/30 05:49:31;;;;;;;3.03;1.20;;;14.50;96.40;;;;;;4979543;28;20045;-71
2022/05/30 05:51:59;;;;;;;4.57;1.27;;;14.70;96.00;;;;;;4965021;28;20195;-71
2022/05/30 05:54:26;;;;;;;1.75;0.82;;;14.90;95.20;;;;;;4982568;28;20041;-70
2022/05/30 05:56:56;;;;;;;2.75;0.98;;;15.00;94.00;;;;;;4998595;28;20075;-71
2022/05/30 05:59:28;;;;;;;1.67;1.00;;;15.00;96.00;;;;;;4972547;28;20197;-71
2022/05/30 06:01:56;;;;;;;1.98;0.98;;;15.00;96.00;;;;;;4978251;28;20045;-71
2022/05/30 06:04:24;;;;;;;2.20;0.88;;;15.10;96.10;;;;;;4997812;28;22534;-71
2022/05/30 06:07:10;;;;;;;3.30;1.60;;;15.10;95.30;;;;;;4979371;28;20123;-71
2022/05/30 06:10:00;;;;;;;3.90;1.38;;;15.10;94.90;;;;;;4989105;28;20136;-71
2022/05/30 06:12:51;;;;;;;4.93;1.08;;;15.10;95.00;;;;;;4980003;28;20853;-71
2022/05/30 06:15:19;;;;;;;2.30;1.00;;;15.20;94.00;;;;;;4971786;28;21145;-72
2022/05/30 06:18:09;;;;;;;2.30;1.00;;;15.20;93.70;;;;;;4981400;28;22444;-71
2022/05/30 06:20:41;;;;;;;2.08;0.88;;;15.20;93.70;;;;;;4955021;28;20049;-71
2022/05/30 06:23:10;;;;;;;3.17;1.10;;;15.40;92.50;;;;;;4975695;28;20046;-71
2022/05/30 06:25:59;;;;;;;2.13;1.05;;;15.40;92.50;;;;;;4983571;28;20134;-71
2022/05/30 06:28:40;;;;;;;7.32;2.65;;;15.50;90.50;;;;;;4980475;28;20045;-71
2022/05/30 06:31:20;;;;;;;2.67;1.00;;;15.70;91.20;;;;;;4980455;28;20140;-71
2022/05/30 06:33:53;;;;;;;1.25;0.85;;;15.70;91.30;;;;;;4990816;28;20154;-71
2022/05/30 06:36:42;;;;;;;2.28;0.70;;;15.60;90.50;;;;;;4996312;28;20214;-71
2022/05/30 06:39:10;;;;;;;2.17;0.88;;;15.60;90.80;;;;;;4998502;28;20091;-71
2022/05/30 06:41:44;;;;;;;3.35;1.02;;;15.70;89.70;;;;;;4978891;28;20103;-71
2022/05/30 06:44:12;;;;;;;2.47;1.10;;;15.80;88.10;;;;;;4978392;28;20053;-72
2022/05/30 06:46:58;;;;;;;2.55;0.80;;;16.00;88.40;;;;;;4981559;28;20103;-72
2022/05/30 06:49:44;;;;;;;1.13;0.60;;;16.30;91.30;;;;;;4981981;28;20136;-72
2022/05/30 06:52:13;;;;;;;2.60;1.13;;;16.60;89.70;;;;;;4976569;28;20049;-71
2022/05/30 06:54:41;;;;;;;5.38;0.80;;;16.60;84.10;;;;;;4970928;28;20054;-71
2022/05/30 06:59:55;;;;;;;1.10;0.60;;;16.90;85.30;;;;;;4977826;28;20042;-71
2022/05/30 07:02:22;;;;;;;3.47;0.40;;;16.90;78.60;;;;;;4996656;28;20143;-72
2022/05/30 07:05:08;;;;;;;3.55;1.00;;;16.70;80.00;;;;;;4976161;28;20111;-72
2022/05/30 07:07:56;;;;;;;2.05;0.68;;;16.50;80.90;;;;;;4977277;28;20103;-72
2022/05/30 07:10:45;;;;;;;2.15;0.80;;;16.50;84.50;;;;;;4961199;28;20572;-72
2022/05/30 07:13:14;;;;;;;1.55;0.80;;;16.40;83.40;;;;;;4992009;28;20049;-72
2022/05/30 07:15:42;;;;;;;1.55;0.63;;;16.60;80.80;;;;;;4966666;28;20237;-72
2022/05/30 07:18:15;;;;;;;4.90;1.20;;;16.80;82.70;;;;;;4971124;28;22375;-72
2022/05/30 07:20:43;;;;;;;2.15;0.65;;;17.00;83.60;;;;;;4991426;28;20139;-71
2022/05/30 07:23:35;;;;;;;2.03;0.90;;;17.30;78.90;;;;;;4967769;28;20061;-72
2022/05/30 07:26:41;;;;;;;2.53;0.90;;;17.30;78.60;;;;;;4971201;28;20054;-74
2022/05/30 07:29:28;;;;;;;2.92;0.88;;;17.30;77.10;;;;;;4970490;28;20099;-72
2022/05/30 07:32:14;;;;;;;2.72;0.55;;;17.30;77.50;;;;;;4979389;28;20076;-72
2022/05/30 07:35:01;;;;;;;3.60;0.50;;;17.80;79.40;;;;;;4984434;28;20183;-72
2022/05/30 07:37:47;;;;;;;1.85;0.63;;;18.00;72.10;;;;;;4980747;28;20812;-72
2022/05/30 07:40:46;;;;;;;2.08;0.60;;;18.30;73.20;;;;;;4980439;28;20077;-72
2022/05/30 07:43:30;;;;;;;3.40;0.88;;;18.50;70.80;;;;;;4983202;28;20050;-72
2022/05/30 07:46:12;;;;;;;2.13;0.60;;;18.20;71.70;;;;;;4981336;28;20042;-72
2022/05/30 07:49:00;;;;;;;1.92;0.60;;;18.30;69.80;;;;;;4971572;28;20145;-72
2022/05/30 07:51:46;;;;;;;2.85;0.50;;;18.70;67.90;;;;;;4984989;28;20052;-72
2022/05/30 07:54:18;;;;;;;1.75;0.60;;;18.50;65.20;;;;;;4977411;28;20053;-72
2022/05/30 07:57:00;;;;;;;2.00;0.50;;;18.40;65.30;;;;;;4962962;28;20056;-72
2022/05/30 07:59:27;;;;;;;2.38;0.50;;;17.80;65.50;;;;;;4984660;28;22237;-73
2022/05/30 08:01:57;;;;;;;2.42;0.70;;;17.80;68.50;;;;;;4977709;28;20057;-73
2022/05/30 08:04:25;;;;;;;1.58;0.40;;;17.70;69.10;;;;;;4971896;28;20248;-73
2022/05/30 08:06:58;;;;;;;4.25;0.30;;;17.70;68.30;;;;;;4987997;28;20466;-73
2022/05/30 08:09:48;;;;;;;39.40;24.83;;;18.10;66.90;;;;;;4975397;28;20054;-73
2022/05/30 08:12:21;;;;;;;1.35;0.40;;;18.30;66.20;;;;;;4985384;28;20088;-72
2022/05/30 08:14:56;;;;;;;11.40;7.20;;;18.40;66.10;;;;;;4981765;28;20992;-73
2022/05/30 08:17:46;;;;;;;5.30;2.92;;;18.50;64.50;;;;;;4970167;28;22686;-73
2022/05/30 08:20:16;;;;;;;3.97;0.60;;;18.50;65.20;;;;;;4984618;28;20041;-72
2022/05/30 08:22:44;;;;;;;0.80;0.60;;;18.40;66.80;;;;;;4978958;28;20053;-72
2022/05/30 08:25:14;;;;;;;2.33;0.82;;;18.10;65.20;;;;;;4984877;28;20169;-72
2022/05/30 08:27:43;;;;;;;3.22;0.70;;;18.00;67.70;;;;;;4983676;28;20621;-72
2022/05/30 08:30:16;;;;;;;1.50;0.73;;;18.10;69.90;;;;;;4997730;28;20651;-73
2022/05/30 08:32:47;;;;;;;1.67;0.57;;;18.20;68.00;;;;;;4982590;28;20064;-72
2022/05/30 08:35:22;;;;;;;1.85;0.50;;;18.20;67.80;;;;;;4980382;28;20119;-72
2022/05/30 08:37:50;;;;;;;1.55;0.32;;;18.30;69.60;;;;;;4962613;28;20091;-72
2022/05/30 08:43:28;;;;;;;1.67;0.50;;;18.40;65.60;;;;;;4981816;28;20046;-72
2022/05/30 08:46:11;;;;;;;1.80;0.80;;;18.50;66.90;;;;;;4976696;28;20092;-71
2022/05/30 08:48:53;;;;;;;2.17;0.70;;;18.60;68.40;;;;;;4999056;28;20050;-72
2022/05/30 08:51:48;;;;;;;3.67;0.70;;;18.60;67.40;;;;;;4958227;28;20191;-72
2022/05/30 08:54:18;;;;;;;3.13;0.70;;;18.70;68.70;;;;;;4982245;28;20050;-72
2022/05/30 08:57:07;;;;;;;3.13;0.50;;;18.70;65.50;;;;;;4983566;28;20416;-72
2022/05/30 09:00:07;;;;;;;2.20;0.50;;;18.80;64.60;;;;;;4974623;28;20083;-72
2022/05/30 09:02:54;;;;;;;1.10;0.40;;;18.90;66.10;;;;;;4956913;28;20050;-72
2022/05/30 09:05:34;;;;;;;2.60;0.40;;;18.70;63.90;;;;;;4996832;28;20230;-73
2022/05/30 09:08:27;;;;;;;3.47;0.40;;;18.70;63.20;;;;;;4975841;28;20073;-72
2022/05/30 09:11:30;;;;;;;2.17;0.20;;;18.70;65.80;;;;;;4978230;28;20062;-72
2022/05/30 09:14:09;;;;;;;2.45;0.30;;;18.70;65.00;;;;;;5000018;28;20053;-72
2022/05/30 09:16:44;;;;;;;2.45;0.30;;;18.70;64.10;;;;;;4981973;28;20836;-72
2022/05/30 09:19:20;;;;;;;1.88;0.50;;;18.80;65.10;;;;;;4979891;28;20854;-73
2022/05/30 09:21:48;;;;;;;1.02;0.40;;;18.80;63.10;;;;;;4971809;28;22162;-72
2022/05/30 09:24:16;;;;;;;1.98;0.60;;;18.90;65.20;;;;;;4981018;28;20049;-72
2022/05/30 09:26:43;;;;;;;2.63;0.60;;;18.90;66.10;;;;;;4974393;28;20041;-72
2022/05/30 09:29:23;;;;;;;2.85;0.68;;;19.20;67.00;;;;;;4979942;28;20062;-72
2022/05/30 09:32:24;;;;;;;1.95;0.40;;;19.30;65.10;;;;;;4981300;28;20155;-72
2022/05/30 09:35:32;;;;;;;2.80;0.60;;;19.30;65.80;;;;;;4978907;28;20625;-72
2022/05/30 09:38:21;;;;;;;3.25;0.60;;;19.40;67.60;;;;;;4992031;28;20099;-73
2022/05/30 09:41:06;;;;;;;2.90;0.45;;;19.40;65.20;;;;;;4956213;28;20076;-72
2022/05/30 09:44:03;;;;;;;1.38;0.70;;;19.40;64.20;;;;;;4971092;28;20710;-72
2022/05/30 09:46:40;;;;;;;2.03;0.45;;;19.50;64.10;;;;;;4981371;28;20076;-72
2022/05/30 09:49:37;;;;;;;1.63;0.50;;;19.60;64.70;;;;;;4977655;28;20068;-72
2022/05/30 09:52:27;;;;;;;3.53;1.00;;;19.80;63.60;;;;;;4972088;28;20053;-73
2022/05/30 09:54:57;;;;;;;3.33;0.70;;;19.70;65.40;;;;;;4961960;28;22549;-72
2022/05/30 09:57:41;;;;;;;1.98;0.50;;;19.70;64.40;;;;;;5009288;28;20075;-72
2022/05/30 10:00:19;;;;;;;2.90;0.60;;;19.90;64.80;;;;;;4996632;28;20045;-72
2022/05/30 10:03:00;;;;;;;5.30;0.57;;;20.00;63.70;;;;;;4979082;28;20056;-73
2022/05/30 10:05:30;;;;;;;1.23;0.75;;;20.30;63.50;;;;;;4977740;28;20053;-72
2022/05/30 10:08:04;;;;;;;2.63;0.75;;;20.30;62.00;;;;;;4977145;28;20195;-71
2022/05/30 10:10:48;;;;;;;3.13;0.80;;;20.20;62.90;;;;;;4981242;28;20154;-72
2022/05/30 10:13:34;;;;;;;2.35;0.68;;;20.30;62.40;;;;;;4978173;28;20053;-72
2022/05/30 10:16:35;;;;;;;2.08;0.60;;;20.30;62.20;;;;;;4965443;28;20061;-72
2022/05/30 10:19:10;;;;;;;1.95;0.63;;;20.30;64.70;;;;;;4980873;28;20256;-73
2022/05/30 10:28:34;;;;;;;1.70;0.50;;;20.20;61.70;;;;;;4995208;28;20053;-72
2022/05/30 10:31:46;;;;;;;2.00;0.40;;;20.20;61.90;;;;;;4952615;28;20148;-73
2022/05/30 10:34:51;;;;;;;3.45;0.75;;;20.30;62.60;;;;;;4969220;28;20054;-71
2022/05/30 10:37:34;;;;;;;2.85;0.52;;;20.50;62.30;;;;;;4997233;28;20045;-72
2022/05/30 10:40:01;;;;;;;2.33;0.60;;;20.30;61.10;;;;;;4991070;28;20045;-72
2022/05/30 10:42:49;;;;;;;2.63;0.35;;;20.00;60.40;;;;;;4980374;28;20773;-72
2022/05/30 10:45:45;;;;;;;1.25;0.40;;;20.10;62.10;;;;;;4971414;28;20123;-72
2022/05/30 10:48:24;;;;;;;3.05;0.80;;;20.30;61.80;;;;;;4992394;28;20716;-72
2022/05/30 10:51:02;;;;;;;2.22;0.65;;;20.20;63.30;;;;;;4995756;28;20673;-71
2022/05/30 10:54:13;;;;;;;1.50;0.47;;;20.10;61.30;;;;;;4964782;28;20064;-72
2022/05/30 10:57:13;;;;;;;3.17;0.45;;;19.80;60.50;;;;;;4989606;28;20057;-73
2022/05/30 11:00:06;;;;;;;3.22;0.90;;;19.80;59.20;;;;;;4970310;28;20088;-71
2022/05/30 11:03:11;;;;;;;1.13;0.33;;;19.70;60.50;;;;;;4969505;28;20072;-71
2022/05/30 11:05:51;;;;;;;2.35;0.40;;;19.80;60.60;;;;;;4992381;28;20060;-71
2022/05/30 11:08:37;;;;;;;3.22;0.52;;;19.60;61.40;;;;;;4962014;28;20050;-70
2022/05/30 11:11:07;;;;;;;1.88;0.57;;;19.70;62.90;;;;;;4998262;28;20062;-71
2022/05/30 11:13:54;;;;;;;3.25;0.82;;;19.70;62.40;;;;;;4971938;28;20773;-72
2022/05/30 11:16:52;;;;;;;1.30;0.70;;;19.70;62.60;;;;;;4974983;28;20061;-71
2022/05/30 11:20:02;;;;;;;4.40;0.50;;;19.50;62.00;;;;;;4980894;28;20368;-71
2022/05/30 11:22:55;;;;;;;2.45;0.50;;;19.40;62.20;;;;;;4981815;28;20072;-71
2022/05/30 11:25:32;;;;;;;3.95;0.52;;;19.40;62.70;;;;;;5011550;28;22771;-71
2022/05/30 11:28:36;;;;;;;6.47;0.68;;;19.40;64.50;;;;;;4989699;28;20053;-73
2022/05/30 11:31:31;;;;;;;1.67;0.40;;;19.40;64.80;;;;;;4981923;28;20057;-73
2022/05/30 11:34:04;;;;;;;2.60;0.47;;;19.50;64.00;;;;;;4976755;28;20065;-72
2022/05/30 11:36:38;;;;;;;2.63;0.63;;;19.50;65.60;;;;;;4994357;28;20053;-72
2022/05/30 11:39:33;;;;;;;1.80;0.40;;;19.40;63.90;;;;;;4982014;28;20057;-73
2022/05/30 11:42:13;;;;;;;1.35;0.50;;;19.30;63.30;;;;;;5015654;28;20044;-73
2022/05/30 11:44:59;;;;;;;1.50;0.47;;;19.20;64.60;;;;;;4963326;28;20058;-73
2022/05/30 11:47:58;;;;;;;4.82;0.70;;;19.20;65.50;;;;;;4979598;28;20543;-73
2022/05/30 11:50:36;;;;;;;2.55;0.40;;;19.30;66.10;;;;;;4984163;28;20706;-73
2022/05/30 11:53:11;;;;;;;3.63;0.60;;;19.30;65.20;;;;;;4982527;28;20124;-73
2022/05/30 11:56:11;;;;;;;4.70;1.40;;;19.10;64.50;;;;;;4980467;28;20080;-72
2022/05/30 11:58:53;;;;;;;2.67;0.40;;;19.30;65.70;;;;;;4977878;28;20181;-73
2022/05/30 12:01:23;;;;;;;2.08;0.50;;;19.30;64.70;;;;;;4971679;28;20266;-73
2022/05/30 12:04:38;;;;;;;1.48;0.52;;;19.40;66.10;;;;;;4980082;28;20725;-72
2022/05/30 12:07:17;;;;;;;3.00;0.47;;;19.50;67.20;;;;;;4968592;28;20061;-72
2022/05/30 12:09:48;;;;;;;4.95;0.73;;;19.30;63.80;;;;;;4983227;28;20054;-72
2022/05/30 12:12:38;;;;;;;1.17;0.35;;;19.30;65.00;;;;;;4981552;28;20038;-72
2022/05/30 12:15:36;;;;;;;4.18;0.52;;;19.30;64.70;;;;;;4982200;28;20164;-72
2022/05/30 12:24:14;;;;;;;2.83;0.50;;;19.30;66.30;;;;;;4984179;28;20167;-72
2022/05/30 12:26:48;;;;;;;2.83;1.05;;;19.10;64.30;;;;;;4996259;28;20049;-72
2022/05/30 12:29:37;;;;;;;3.40;0.75;;;19.20;65.60;;;;;;4978039;28;20202;-72
2022/05/30 12:32:29;;;;;;;1.42;0.40;;;19.30;65.20;;;;;;4975631;28;20942;-72
2022/05/30 12:37:44;;;;;;;3.95;0.60;;;19.40;65.50;;;;;;4982030;28;20294;-72
2022/05/30 12:40:24;;;;;;;2.08;0.63;;;19.40;65.20;;;;;;4979628;28;20041;-72
2022/05/30 12:43:19;;;;;;;3.78;0.70;;;19.40;64.10;;;;;;4998091;28;20046;-73
2022/05/30 12:45:48;;;;;;;3.25;0.60;;;19.30;63.20;;;;;;4980363;28;20052;-73
2022/05/30 12:48:32;;;;;;;2.45;0.85;;;19.50;65.90;;;;;;4984345;28;20140;-72
2022/05/30 12:51:29;;;;;;;1.45;0.45;;;19.30;63.20;;;;;;4980927;28;20053;-72
2022/05/30 12:53:59;;;;;;;0.95;0.40;;;19.10;62.00;;;;;;4977067;28;20067;-72
2022/05/30 12:56:43;;;;;;;1.70;0.40;;;19.20;65.80;;;;;;4995713;28;22916;-72
2022/05/30 12:59:19;;;;;;;2.47;0.60;;;19.20;65.10;;;;;;4980968;28;20151;-72
2022/05/30 13:01:47;;;;;;;6.72;1.58;;;19.00;65.10;;;;;;4981444;28;20136;-72
2022/05/30 13:04:25;;;;;;;2.47;1.08;;;19.00;68.00;;;;;;4984274;28;20119;-72
2022/05/30 13:07:04;;;;;;;5.50;1.33;;;18.80;70.80;;;;;;4981667;28;20050;-73
2022/05/30 13:09:36;;;;;;;4.47;1.30;;;18.60;71.40;;;;;;4979458;28;20543;-72
2022/05/30 13:12:17;;;;;;;5.80;1.45;;;18.40;72.50;;;;;;4998186;28;20193;-72
2022/05/30 13:14:44;;;;;;;7.40;2.08;;;18.30;72.50;;;;;;4983531;28;20080;-73
2022/05/30 13:17:23;;;;;;;5.25;1.45;;;18.20;73.30;;;;;;4981697;28;22620;-72
2022/05/30 13:20:12;;;;;;;5.57;1.60;;;18.20;73.60;;;;;;4983229;28;20041;-73
2022/05/30 13:22:51;;;;;;;3.33;1.85;;;18.00;75.30;;;;;;4984606;28;20053;-72
2022/05/30 13:25:20;;;;;;;3.92;1.80;;;18.00;74.50;;;;;;4981782;28;20981;-73
2022/05/30 13:27:48;;;;;;;3.20;1.05;;;17.80;75.80;;;;;;4982534;28;20041;-72
2022/05/30 13:30:24;;;;;;;6.57;1.88;;;17.90;76.70;;;;;;4981417;28;22516;-72
2022/05/30 13:32:52;;;;;;;3.90;1.58;;;17.80;77.40;;;;;;4994783;28;20049;-72
2022/05/30 13:35:24;;;;;;;5.65;1.25;;;17.90;77.60;;;;;;4981894;28;20052;-73
2022/05/30 13:38:02;;;;;;;4.22;0.88;;;17.90;77.30;;;;;;4997807;28;20050;-71
2022/05/30 13:40:31;;;;;;;3.08;1.23;;;17.80;77.70;;;;;;4996167;28;20428;-72
2022/05/30 13:43:05;;;;;;;3.95;1.17;;;17.80;80.70;;;;;;4980452;28;22435;-72
2022/05/30 13:45:53;;;;;;;3.20;1.58;;;17.80;78.50;;;;;;4981938;28;21986;-72
2022/05/30 13:48:20;;;;;;;5.20;1.63;;;17.70;79.70;;;;;;4996057;28;20144;-72
2022/05/30 13:51:00;;;;;;;4.28;2.17;;;17.70;81.20;;;;;;4984870;28;20049;-73
2022/05/30 13:53:46;;;;;;;5.75;1.55;;;17.50;81.30;;;;;;4981375;28;20057;-71
2022/05/30 13:56:30;;;;;;;5.82;2.10;;;17.40;81.70;;;;;;4982497;28;20168;-72
2022/05/30 13:58:59;;;;;;;6.13;2.00;;;17.40;82.60;;;;;;4981307;28;20049;-72
2022/05/30 14:01:36;;;;;;;5.15;2.03;;;17.60;81.30;;;;;;4984107;28;20048;-72
2022/05/30 14:04:12;;;;;;;5.85;2.30;;;17.50;79.80;;;;;;4974348;28;20081;-72
2022/05/30 14:06:43;;;;;;;7.15;1.70;;;17.40;81.00;;;;;;4997566;28;20136;-72